createdAt,value
2022-09-02T00:01:24.482Z,3.63
2022-09-02T00:03:55.096Z,3.05
2022-09-02T00:06:22.357Z,6.00
2022-09-02T00:08:49.656Z,6.82
2022-09-02T00:11:20.579Z,4.13
2022-09-02T00:13:49.407Z,4.60
2022-09-02T00:16:17.497Z,3.80
2022-09-02T00:18:45.998Z,4.72
2022-09-02T00:21:15.186Z,3.55
2022-09-02T00:23:43.898Z,2.60
2022-09-02T00:26:12.330Z,2.28
2022-09-02T00:28:48.969Z,2.72
2022-09-02T00:31:25.209Z,5.53
2022-09-02T00:33:52.572Z,2.55
2022-09-02T00:36:19.623Z,2.83
2022-09-02T00:38:47.030Z,2.13
2022-09-02T00:41:14.626Z,2.78
2022-09-02T00:44:02.080Z,2.10
2022-09-02T00:46:31.291Z,5.38
2022-09-02T00:49:05.653Z,2.30
2022-09-02T00:51:46.956Z,1.85
2022-09-02T00:54:17.078Z,1.85
2022-09-02T00:56:46.383Z,3.95
2022-09-02T00:59:19.030Z,3.90
2022-09-02T01:01:46.713Z,3.35
2022-09-02T01:04:13.690Z,2.80
2022-09-02T01:06:41.347Z,2.22
2022-09-02T01:09:14.820Z,2.15
2022-09-02T01:11:49.628Z,2.95
2022-09-02T01:14:17.093Z,3.50
2022-09-02T01:16:51.499Z,2.45
2022-09-02T01:19:25.506Z,3.90
2022-09-02T01:21:57.502Z,2.25
2022-09-02T01:24:33.149Z,3.58
2022-09-02T01:27:00.415Z,5.38
2022-09-02T01:29:28.797Z,2.67
2022-09-02T01:31:56.134Z,1.83
2022-09-02T01:34:24.099Z,1.55
2022-09-02T01:36:51.597Z,2.22
2022-09-02T01:39:18.484Z,2.33
2022-09-02T01:41:46.018Z,1.90
2022-09-02T01:44:16.269Z,2.33
2022-09-02T01:46:44.760Z,4.80
2022-09-02T01:49:13.233Z,4.47
2022-09-02T01:51:41.268Z,1.52
2022-09-02T01:54:08.753Z,4.13
2022-09-02T01:56:35.992Z,1.58
2022-09-02T01:59:04.145Z,1.85
2022-09-02T02:01:32.402Z,2.45
2022-09-02T02:03:59.835Z,1.48
2022-09-02T02:06:27.722Z,1.30
2022-09-02T02:08:55.692Z,1.45
2022-09-02T02:11:25.294Z,3.47
2022-09-02T02:14:02.472Z,2.67
2022-09-02T02:16:29.584Z,2.40
2022-09-02T02:18:56.589Z,2.15
2022-09-02T02:21:24.096Z,2.05
2022-09-02T02:23:51.438Z,1.85
2022-09-02T02:26:18.402Z,1.63
2022-09-02T02:28:55.934Z,2.17
2022-09-02T02:31:24.659Z,3.40
2022-09-02T02:33:52.194Z,2.38
2022-09-02T02:36:19.846Z,3.85
2022-09-02T02:38:47.477Z,3.00
2022-09-02T02:41:16.043Z,2.03
2022-09-02T02:43:43.822Z,1.67
2022-09-02T02:46:12.157Z,2.70
2022-09-02T02:48:39.312Z,3.03
2022-09-02T02:51:07.921Z,2.80
2022-09-02T02:53:36.985Z,3.40
2022-09-02T02:56:06.010Z,2.53
2022-09-02T02:58:33.216Z,2.10
2022-09-02T03:01:01.689Z,1.38
2022-09-02T03:03:30.425Z,1.33
2022-09-02T03:05:58.511Z,1.23
2022-09-02T03:08:27.299Z,1.35
2022-09-02T03:10:56.495Z,2.15
2022-09-02T03:13:29.590Z,2.95
2022-09-02T03:16:01.983Z,2.85
2022-09-02T03:18:29.062Z,1.23
2022-09-02T03:20:57.454Z,2.83
2022-09-02T03:23:24.834Z,1.70
2022-09-02T03:25:52.054Z,1.65
2022-09-02T03:28:33.751Z,2.15
2022-09-02T03:31:02.843Z,0.70
2022-09-02T03:33:30.038Z,1.30
2022-09-02T03:35:57.786Z,1.15
2022-09-02T03:38:26.326Z,1.92
2022-09-02T03:40:53.884Z,0.70
2022-09-02T03:43:23.609Z,1.30
2022-09-02T03:45:50.662Z,1.73
2022-09-02T03:48:18.046Z,1.20
2022-09-02T03:50:47.454Z,1.75
2022-09-02T03:53:19.697Z,0.82
2022-09-02T03:55:50.922Z,0.73
2022-09-02T03:58:21.041Z,0.88
2022-09-02T04:00:54.751Z,1.00
2022-09-02T04:03:24.184Z,1.20
2022-09-02T04:05:52.510Z,2.00
2022-09-02T04:08:22.830Z,2.72
2022-09-02T04:10:52.084Z,1.20
2022-09-02T04:13:19.982Z,1.42
2022-09-02T04:15:49.743Z,1.55
2022-09-02T04:18:21.518Z,1.40
2022-09-02T04:20:50.425Z,0.98
2022-09-02T04:23:18.956Z,1.52
2022-09-02T04:25:49.060Z,0.50
2022-09-02T04:28:17.186Z,1.77
2022-09-02T04:30:44.720Z,0.82
2022-09-02T04:33:14.027Z,0.60
2022-09-02T04:35:44.285Z,2.83
2022-09-02T04:38:17.266Z,2.38
2022-09-02T04:40:46.670Z,0.70
2022-09-02T04:43:15.412Z,1.38
2022-09-02T04:45:45.698Z,1.75
2022-09-02T04:48:15.081Z,1.52
2022-09-02T04:50:42.877Z,1.90
2022-09-02T04:53:11.727Z,1.75
2022-09-02T04:55:42.539Z,2.55
2022-09-02T04:58:11.893Z,1.75
2022-09-02T05:00:39.900Z,1.05
2022-09-02T05:05:40.439Z,2.00
2022-09-02T05:08:10.119Z,1.63
2022-09-02T05:10:40.493Z,1.20
2022-09-02T05:13:07.352Z,1.20
2022-09-02T05:15:40.787Z,0.93
2022-09-02T05:18:12.747Z,1.55
2022-09-02T05:20:42.699Z,1.67
2022-09-02T05:23:12.637Z,1.35
2022-09-02T05:25:42.138Z,2.33
2022-09-02T05:28:11.150Z,1.02
2022-09-02T05:30:40.951Z,1.75
2022-09-02T05:33:09.915Z,2.10
2022-09-02T05:35:44.642Z,1.60
2022-09-02T05:38:15.203Z,2.05
2022-09-02T05:40:42.412Z,4.30
2022-09-02T05:43:10.121Z,2.53
2022-09-02T05:45:39.255Z,1.50
2022-09-02T05:48:26.780Z,1.55
2022-09-02T05:50:57.348Z,3.13
2022-09-02T05:53:27.083Z,1.65
2022-09-02T05:55:54.479Z,2.35
2022-09-02T05:58:22.798Z,2.75
2022-09-02T06:00:51.359Z,1.77
2022-09-02T06:03:21.094Z,3.15
2022-09-02T06:05:58.986Z,1.33
2022-09-02T06:08:29.202Z,1.65
2022-09-02T06:10:56.329Z,1.98
2022-09-02T06:15:55.296Z,3.15
2022-09-02T06:18:26.213Z,1.40
2022-09-02T06:20:55.995Z,2.25
2022-09-02T06:23:25.408Z,2.92
2022-09-02T06:25:52.862Z,1.10
2022-09-02T06:28:20.560Z,2.28
2022-09-02T06:30:49.482Z,1.30
2022-09-02T06:33:21.346Z,2.83
2022-09-02T06:35:49.464Z,4.88
2022-09-02T06:38:19.873Z,4.50
2022-09-02T06:40:53.503Z,2.95
2022-09-02T06:43:28.309Z,2.78
2022-09-02T06:46:24.587Z,2.30
2022-09-02T06:48:54.969Z,2.60
2022-09-02T06:51:34.068Z,2.92
2022-09-02T06:54:05.069Z,3.00
2022-09-02T06:56:35.799Z,5.32
2022-09-02T06:59:04.659Z,1.70
2022-09-02T07:01:42.869Z,2.67
2022-09-02T07:04:29.729Z,3.58
2022-09-02T07:07:00.207Z,2.90
2022-09-02T07:09:31.677Z,2.03
2022-09-02T07:12:06.077Z,1.88
2022-09-02T07:14:41.941Z,1.88
2022-09-02T07:17:13.138Z,1.23
2022-09-02T07:19:40.329Z,1.35
2022-09-02T07:22:07.901Z,2.53
2022-09-02T07:24:41.961Z,1.02
2022-09-02T07:27:11.414Z,3.90
2022-09-02T07:29:39.262Z,3.67
2022-09-02T07:32:06.700Z,2.30
2022-09-02T07:34:36.089Z,1.17
2022-09-02T07:37:07.349Z,0.60
2022-09-02T07:39:37.419Z,2.13
2022-09-02T07:42:04.873Z,0.80
2022-09-02T07:44:34.889Z,5.28
2022-09-02T07:47:02.082Z,1.95
2022-09-02T07:50:15.606Z,1.67
2022-09-02T07:52:18.018Z,1.30
2022-09-02T07:54:45.445Z,1.98
2022-09-02T07:57:12.472Z,1.90
2022-09-02T07:59:40.682Z,1.63
2022-09-02T08:02:35.347Z,2.15
2022-09-02T08:05:02.671Z,4.15
2022-09-02T08:07:30.074Z,3.08
2022-09-02T08:09:57.540Z,4.88
2022-09-02T08:12:24.859Z,1.38
2022-09-02T08:14:51.882Z,1.08
2022-09-02T08:17:18.767Z,2.55
2022-09-02T08:19:46.626Z,1.00
2022-09-02T08:22:15.131Z,3.08
2022-09-02T08:24:42.106Z,3.50
2022-09-02T08:27:16.211Z,2.28
2022-09-02T08:29:50.876Z,1.88
2022-09-02T08:32:28.890Z,2.35
2022-09-02T08:34:56.507Z,3.58
2022-09-02T08:37:23.559Z,2.95
2022-09-02T08:39:50.580Z,1.65
2022-09-02T08:42:33.762Z,2.25
2022-09-02T08:45:21.732Z,3.72
2022-09-02T08:47:53.522Z,3.28
2022-09-02T08:50:21.707Z,1.88
2022-09-02T08:53:09.835Z,6.85
2022-09-02T08:55:50.807Z,17.75
2022-09-02T08:58:21.087Z,10.57
2022-09-02T09:03:31.064Z,11.38
2022-09-02T09:06:25.910Z,15.93
2022-09-02T09:09:32.966Z,14.85
2022-09-02T09:12:38.211Z,3.15
2022-09-02T09:15:31.438Z,1.70
2022-09-02T09:18:02.991Z,5.75
2022-09-02T09:20:37.879Z,1.27
2022-09-02T09:23:38.296Z,1.15
2022-09-02T09:26:05.929Z,3.75
2022-09-02T09:28:40.702Z,1.85
2022-09-02T09:31:15.040Z,2.90
2022-09-02T09:34:05.293Z,3.60
2022-09-02T09:36:44.940Z,3.03
2022-09-02T09:39:32.322Z,1.75
2022-09-02T09:42:11.789Z,5.22
2022-09-02T09:44:39.086Z,0.73
2022-09-02T09:47:09.487Z,1.50
2022-09-02T09:49:40.476Z,1.50
2022-09-02T09:52:07.820Z,1.55
2022-09-02T09:54:35.304Z,0.77
2022-09-02T09:57:21.719Z,1.45
2022-09-02T09:59:57.126Z,3.10
2022-09-02T10:02:27.338Z,6.00
2022-09-02T10:05:26.883Z,4.43
2022-09-02T10:07:57.332Z,3.30
2022-09-02T10:10:28.139Z,3.95
2022-09-02T10:13:00.113Z,0.75
2022-09-02T10:15:35.666Z,4.95
2022-09-02T10:18:22.829Z,5.10
2022-09-02T10:21:31.848Z,2.33
2022-09-02T10:24:20.401Z,3.97
2022-09-02T10:26:58.817Z,1.52
2022-09-02T10:29:42.233Z,2.78
2022-09-02T10:32:12.199Z,6.47
2022-09-02T10:35:11.229Z,8.23
2022-09-02T10:37:56.617Z,7.10
2022-09-02T10:40:29.311Z,4.80
2022-09-02T10:43:07.231Z,2.70
2022-09-02T10:45:46.611Z,4.47
2022-09-02T10:48:26.403Z,5.78
2022-09-02T10:51:05.987Z,1.88
2022-09-02T10:54:01.781Z,2.00
2022-09-02T10:56:36.258Z,2.70
2022-09-02T10:59:11.960Z,0.63
2022-09-02T11:01:51.342Z,0.68
2022-09-02T11:04:37.447Z,1.13
2022-09-02T11:07:08.332Z,5.70
2022-09-02T11:09:39.314Z,6.75
2022-09-02T11:12:25.684Z,5.07
2022-09-02T11:15:20.194Z,1.48
2022-09-02T11:18:02.223Z,1.15
2022-09-02T11:20:35.651Z,5.50
2022-09-02T11:23:08.543Z,2.83
2022-09-02T11:25:52.688Z,3.75
2022-09-02T11:28:30.697Z,4.72
2022-09-02T11:31:38.915Z,6.68
2022-09-02T11:34:47.623Z,6.85
2022-09-02T11:37:30.310Z,0.82
2022-09-02T11:40:23.535Z,1.17
2022-09-02T11:43:15.366Z,1.90
2022-09-02T11:45:57.201Z,2.83
2022-09-02T11:48:39.381Z,2.88
2022-09-02T11:51:17.280Z,5.05
2022-09-02T11:53:47.028Z,2.40
2022-09-02T11:56:22.093Z,2.33
2022-09-02T11:58:53.297Z,1.50
2022-09-02T12:01:43.692Z,0.97
2022-09-02T12:07:09.556Z,0.82
2022-09-02T12:09:48.102Z,1.13
2022-09-02T12:12:36.914Z,3.42
2022-09-02T12:15:05.534Z,2.42
2022-09-02T12:17:38.076Z,1.00
2022-09-02T12:20:30.939Z,0.40
2022-09-02T12:22:58.618Z,3.67
2022-09-02T12:25:26.930Z,0.60
2022-09-02T12:28:24.002Z,1.13
2022-09-02T12:31:15.808Z,1.08
2022-09-02T12:33:45.913Z,1.35
2022-09-02T12:36:42.781Z,1.90
2022-09-02T12:39:23.850Z,2.50
2022-09-02T12:42:12.819Z,2.47
2022-09-02T12:45:01.270Z,2.28
2022-09-02T12:47:49.354Z,8.32
2022-09-02T12:50:19.966Z,3.05
2022-09-02T12:52:49.612Z,3.22
2022-09-02T12:55:30.583Z,2.33
2022-09-02T12:58:11.845Z,3.22
2022-09-02T13:01:02.920Z,3.23
2022-09-02T13:04:06.977Z,1.70
2022-09-02T13:06:58.409Z,4.82
2022-09-02T13:09:53.618Z,6.07
2022-09-02T13:13:03.516Z,7.40
2022-09-02T13:15:43.348Z,6.35
2022-09-02T13:18:16.101Z,4.00
2022-09-02T13:21:04.567Z,4.40
2022-09-02T13:23:52.343Z,1.98
2022-09-02T13:26:49.746Z,4.25
2022-09-02T13:29:36.819Z,4.97
2022-09-02T13:32:23.326Z,3.65
2022-09-02T13:34:55.255Z,3.50
2022-09-02T13:37:40.818Z,1.77
2022-09-02T13:40:14.527Z,3.83
2022-09-02T13:45:18.642Z,11.27
2022-09-02T13:47:50.403Z,10.68
2022-09-02T13:50:21.661Z,14.40
2022-09-02T13:55:52.397Z,5.88
2022-09-02T13:58:35.572Z,6.30
2022-09-02T14:01:24.971Z,3.78
2022-09-02T14:03:55.942Z,8.65
2022-09-02T14:06:28.606Z,5.38
2022-09-02T14:09:08.541Z,7.53
2022-09-02T14:14:12.783Z,3.88
2022-09-02T14:16:39.745Z,8.98
2022-09-02T14:19:19.359Z,5.82
2022-09-02T14:21:52.813Z,4.60
2022-09-02T14:24:24.542Z,3.28
2022-09-02T14:27:00.906Z,3.20
2022-09-02T14:29:33.834Z,3.15
2022-09-02T14:32:07.034Z,3.97
2022-09-02T14:34:45.380Z,3.58
2022-09-02T14:37:50.531Z,3.33
2022-09-02T14:40:18.393Z,6.72
2022-09-02T14:42:57.578Z,6.57
2022-09-02T14:45:31.302Z,6.78
2022-09-02T14:48:03.070Z,8.05
2022-09-02T14:50:32.892Z,2.17
2022-09-02T14:53:06.078Z,3.10
2022-09-02T14:55:57.088Z,6.78
2022-09-02T14:58:27.641Z,3.17
2022-09-02T15:01:02.801Z,3.53
2022-09-02T15:03:39.427Z,4.28
2022-09-02T15:06:15.371Z,3.13
2022-09-02T15:08:44.612Z,3.22
2022-09-02T15:11:14.873Z,5.68
2022-09-02T15:13:42.170Z,6.93
2022-09-02T15:16:09.143Z,7.82
2022-09-02T15:18:36.586Z,9.70
2022-09-02T15:21:05.411Z,13.80
2022-09-02T15:23:34.905Z,19.85
2022-09-02T15:26:03.826Z,27.95
2022-09-02T15:28:31.093Z,12.60
2022-09-02T15:31:02.454Z,9.57
2022-09-02T15:33:30.344Z,10.68
2022-09-02T15:36:08.558Z,11.35
2022-09-02T15:38:38.321Z,15.65
2022-09-02T15:41:13.402Z,6.25
2022-09-02T15:43:41.048Z,4.68
2022-09-02T15:46:20.192Z,7.13
2022-09-02T15:48:48.439Z,15.52
2022-09-02T15:51:16.980Z,12.07
2022-09-02T15:53:44.596Z,20.33
2022-09-02T15:56:23.059Z,21.00
2022-09-02T15:58:58.166Z,11.02
2022-09-02T16:01:30.760Z,17.50
2022-09-02T16:03:58.935Z,41.80
2022-09-02T16:06:26.293Z,42.58
2022-09-02T16:08:53.202Z,43.17
2022-09-02T16:11:20.906Z,27.40
2022-09-02T16:13:48.358Z,32.67
2022-09-02T16:16:16.122Z,35.53
2022-09-02T16:18:44.376Z,19.40
2022-09-02T16:21:12.887Z,9.82
2022-09-02T16:23:40.419Z,29.85
2022-09-02T16:26:15.003Z,81.65
2022-09-02T16:28:45.173Z,31.98
2022-09-02T16:31:17.531Z,10.65
2022-09-02T16:33:52.129Z,14.18
2022-09-02T16:36:33.353Z,11.38
2022-09-02T16:39:01.596Z,4.28
2022-09-02T16:41:34.890Z,3.58
2022-09-02T16:44:05.662Z,6.45
2022-09-02T16:46:33.824Z,3.13
2022-09-02T16:49:00.963Z,5.07
2022-09-02T16:51:30.147Z,4.55
2022-09-02T16:53:59.629Z,10.40
2022-09-02T16:56:27.933Z,21.67
2022-09-02T16:58:54.910Z,15.75
2022-09-02T17:01:23.287Z,6.40
2022-09-02T17:03:50.790Z,8.23
2022-09-02T17:06:18.436Z,6.13
2022-09-02T17:08:45.666Z,6.70
2022-09-02T17:11:37.727Z,4.63
2022-09-02T17:14:10.487Z,6.17
2022-09-02T17:16:40.960Z,9.95
2022-09-02T17:19:11.341Z,4.43
2022-09-02T17:24:17.094Z,5.57
2022-09-02T17:26:47.100Z,5.13
2022-09-02T17:29:47.080Z,4.38
2022-09-02T17:32:07.432Z,8.80
2022-09-02T17:34:34.722Z,6.85
2022-09-02T17:37:02.848Z,5.28
2022-09-02T17:39:30.659Z,6.07
2022-09-02T17:41:57.872Z,5.93
2022-09-02T17:44:35.975Z,6.70
2022-09-02T17:47:06.340Z,5.40
2022-09-02T17:49:36.367Z,6.20
2022-09-02T17:52:07.690Z,8.23
2022-09-02T17:54:36.586Z,12.85
2022-09-02T17:57:28.252Z,10.55
2022-09-02T18:00:13.451Z,15.32
2022-09-02T18:03:25.649Z,13.73
2022-09-02T18:06:07.412Z,17.02
2022-09-02T18:08:51.851Z,12.32
2022-09-02T18:11:22.509Z,8.88
2022-09-02T18:14:01.903Z,9.80
2022-09-02T18:16:55.248Z,5.68
2022-09-02T18:19:41.409Z,8.88
2022-09-02T18:22:26.933Z,9.70
2022-09-02T18:25:08.526Z,11.07
2022-09-02T18:28:02.228Z,20.60
2022-09-02T18:30:55.215Z,12.65
2022-09-02T18:33:56.912Z,9.88
2022-09-02T18:36:36.550Z,5.18
2022-09-02T18:39:06.578Z,6.03
2022-09-02T18:41:55.202Z,7.72
2022-09-02T18:44:36.224Z,6.95
2022-09-02T18:47:08.862Z,8.68
2022-09-02T18:49:38.783Z,8.68
2022-09-02T18:52:10.597Z,5.60
2022-09-02T18:54:43.230Z,5.70
2022-09-02T18:57:10.738Z,6.13
2022-09-02T19:00:04.413Z,5.60
2022-09-02T19:02:42.370Z,4.22
2022-09-02T19:05:15.750Z,9.15
2022-09-02T19:08:14.766Z,7.20
2022-09-02T19:10:41.847Z,6.07
2022-09-02T19:13:09.140Z,7.05
2022-09-02T19:15:39.045Z,6.60
2022-09-02T19:18:06.276Z,8.27
2022-09-02T19:20:35.771Z,6.22
2022-09-02T19:23:05.609Z,7.28
2022-09-02T19:25:34.279Z,7.03
2022-09-02T19:28:06.131Z,9.80
2022-09-02T19:30:37.239Z,8.90
2022-09-02T19:33:10.880Z,7.05
2022-09-02T19:35:42.240Z,8.18
2022-09-02T19:38:10.540Z,9.38
2022-09-02T19:40:37.628Z,5.63
2022-09-02T19:43:07.657Z,8.38
2022-09-02T19:45:39.236Z,6.75
2022-09-02T19:48:22.863Z,7.47
2022-09-02T19:50:53.533Z,7.15
2022-09-02T19:53:25.279Z,7.70
2022-09-02T19:55:52.396Z,8.77
2022-09-02T19:58:19.381Z,6.47
2022-09-02T20:00:47.912Z,7.55
2022-09-02T20:03:15.226Z,9.25
2022-09-02T20:05:42.481Z,6.07
2022-09-02T20:08:09.683Z,5.22
2022-09-02T20:10:38.427Z,5.97
2022-09-02T20:13:05.983Z,8.75
2022-09-02T20:15:43.007Z,11.52
2022-09-02T20:18:15.673Z,6.40
2022-09-02T20:20:48.265Z,6.13
2022-09-02T20:23:17.830Z,4.82
2022-09-02T20:26:06.323Z,5.68
2022-09-02T20:28:47.141Z,5.70
2022-09-02T20:31:31.324Z,7.28
2022-09-02T20:34:31.573Z,5.00
2022-09-02T20:37:41.509Z,6.80
2022-09-02T20:40:27.354Z,6.13
2022-09-02T20:43:18.058Z,5.85
2022-09-02T20:45:57.961Z,7.18
2022-09-02T20:49:02.228Z,8.40
2022-09-02T20:51:32.937Z,4.90
2022-09-02T20:54:26.367Z,7.57
2022-09-02T20:56:53.341Z,5.63
2022-09-02T20:59:54.472Z,7.47
2022-09-02T21:02:28.204Z,3.83
2022-09-02T21:05:12.179Z,6.97
2022-09-02T21:07:45.649Z,6.68
2022-09-02T21:10:29.859Z,6.07
2022-09-02T21:13:06.847Z,3.03
2022-09-02T21:15:51.899Z,5.10
2022-09-02T21:18:27.760Z,12.18
2022-09-02T21:21:07.473Z,4.95
2022-09-02T21:23:41.429Z,7.25
2022-09-02T21:26:23.310Z,7.53
2022-09-02T21:28:58.453Z,7.63
2022-09-02T21:31:25.584Z,6.05
2022-09-02T21:33:54.860Z,5.43
2022-09-02T21:36:30.522Z,6.28
2022-09-02T21:42:01.072Z,5.57
2022-09-02T21:44:45.070Z,7.00
2022-09-02T21:47:25.725Z,9.10
2022-09-02T21:49:58.677Z,9.90
2022-09-02T21:52:51.158Z,7.88
2022-09-02T21:55:33.588Z,9.45
2022-09-02T21:58:12.482Z,8.82
2022-09-02T22:00:54.157Z,11.10
2022-09-02T22:03:40.196Z,8.20
2022-09-02T22:06:23.086Z,9.00
2022-09-02T22:08:59.263Z,11.38
2022-09-02T22:11:33.188Z,9.10
2022-09-02T22:14:14.527Z,9.85
2022-09-02T22:16:59.094Z,8.10
2022-09-02T22:19:30.276Z,6.75
2022-09-02T22:22:06.376Z,7.63
2022-09-02T22:24:37.334Z,7.30
2022-09-02T22:27:15.106Z,3.90
2022-09-02T22:30:02.030Z,5.20
2022-09-02T22:32:47.389Z,5.20
2022-09-02T22:35:37.274Z,5.63
2022-09-02T22:38:10.888Z,5.93
2022-09-02T22:40:46.233Z,5.90
2022-09-02T22:43:19.271Z,7.10
2022-09-02T22:46:38.354Z,5.88
2022-09-02T22:49:30.740Z,8.98
2022-09-02T22:52:19.441Z,5.00
2022-09-02T22:54:46.568Z,7.03
2022-09-02T22:57:43.764Z,9.45
2022-09-02T23:00:13.891Z,13.85
2022-09-02T23:03:15.641Z,12.73
2022-09-02T23:06:15.117Z,15.00
2022-09-02T23:08:44.300Z,14.85
2022-09-02T23:11:28.172Z,14.38
2022-09-02T23:14:19.368Z,10.45
2022-09-02T23:17:19.409Z,10.38
2022-09-02T23:19:59.890Z,7.22
2022-09-02T23:22:33.958Z,6.28
2022-09-02T23:25:18.119Z,5.88
2022-09-02T23:27:53.069Z,8.95
2022-09-02T23:30:20.313Z,10.13
2022-09-02T23:33:04.741Z,6.40
2022-09-02T23:35:52.225Z,7.30
2022-09-02T23:38:56.901Z,6.85
2022-09-02T23:41:24.976Z,9.23
2022-09-02T23:43:52.855Z,6.90
2022-09-02T23:46:56.629Z,6.05
2022-09-02T23:50:01.501Z,7.53
2022-09-02T23:52:44.435Z,6.65
2022-09-02T23:55:30.901Z,7.75
2022-09-02T23:58:07.289Z,4.18
